Time;durP1;ratioP1;P1;durP2;ratioP2;P2;SDS_P1;SDS_P2;PMS_P1;PMS_P2;Temp;Humidity;BMP_temperature;BMP_pressure;BME280_temperature;BME280_humidity;BME280_pressure;Samples;Min_cycle;Max_cycle;Signal;HPM_P1;HPM_P2
2023/08/20 00:00:16;;;;;;;20.25;15.63;;;;;;;;;;5056893;28;20411;-62
2023/08/20 00:02:44;;;;;;;22.60;16.67;;;;;;;;;;5058622;28;20455;-62
2023/08/20 00:05:11;;;;;;;19.52;14.35;;;;;;;;;;5062248;28;20423;-61
2023/08/20 00:07:38;;;;;;;18.25;14.57;;;;;;;;;;5058586;28;20407;-62
2023/08/20 00:10:06;;;;;;;19.08;16.20;;;;;;;;;;5062056;28;20499;-62
2023/08/20 00:12:33;;;;;;;17.20;14.85;;;;;;;;;;5058612;28;20469;-62
2023/08/20 00:15:05;;;;;;;17.43;13.87;;;;;;;;;;5062075;28;20489;-62
2023/08/20 00:17:33;;;;;;;17.67;13.60;;;;;;;;;;5056113;28;20403;-62
2023/08/20 00:20:00;;;;;;;16.45;13.20;;;;;;;;;;5057546;28;20409;-63
2023/08/20 00:22:27;;;;;;;16.77;13.07;;;;;;;;;;5050800;28;20412;-61
2023/08/20 00:24:55;;;;;;;19.90;13.23;;;;;;;;;;5061036;28;20905;-62
2023/08/20 00:27:22;;;;;;;19.98;14.45;;;;;;;;;;5058697;28;20416;-62
2023/08/20 00:29:49;;;;;;;19.42;14.85;;;;;;;;;;5060579;28;20417;-62
2023/08/20 00:32:17;;;;;;;17.90;13.97;;;;;;;;;;5059162;28;20813;-62
2023/08/20 00:34:45;;;;;;;17.35;13.23;;;;;;;;;;5059974;28;20487;-62
2023/08/20 00:37:13;;;;;;;22.17;14.00;;;;;;;;;;5059490;28;20520;-62
2023/08/20 00:39:40;;;;;;;20.63;13.70;;;;;;;;;;5057422;28;20492;-61
2023/08/20 00:42:07;;;;;;;19.53;13.60;;;;;;;;;;5060005;28;20885;-62
2023/08/20 00:44:34;;;;;;;20.58;13.45;;;;;;;;;;5058939;28;20524;-62
2023/08/20 00:47:02;;;;;;;17.52;13.02;;;;;;;;;;5059734;28;20420;-62
2023/08/20 00:49:31;;;;;;;17.08;13.13;;;;;;;;;;5058150;28;20412;-61
2023/08/20 00:51:58;;;;;;;18.55;14.35;;;;;;;;;;5054356;28;20413;-62
2023/08/20 00:54:26;;;;;;;16.85;13.88;;;;;;;;;;5059293;28;20405;-61
2023/08/20 00:56:53;;;;;;;18.23;13.60;;;;;;;;;;5058927;28;20416;-62
2023/08/20 00:59:20;;;;;;;17.67;13.27;;;;;;;;;;5059628;28;20417;-62
2023/08/20 01:01:48;;;;;;;20.20;14.13;;;;;;;;;;5058753;28;20413;-62
2023/08/20 01:04:15;;;;;;;18.80;13.63;;;;;;;;;;5060142;28;20427;-62
2023/08/20 01:06:48;;;;;;;19.48;15.02;;;;;;;;;;5058500;28;20413;-62
2023/08/20 01:09:21;;;;;;;21.15;15.80;;;;;;;;;;5063083;28;20412;-62
2023/08/20 01:11:51;;;;;;;22.17;16.15;;;;;;;;;;5059980;28;20500;-62
2023/08/20 01:14:18;;;;;;;22.40;16.40;;;;;;;;;;5058867;28;20487;-62
2023/08/20 01:16:46;;;;;;;24.88;17.85;;;;;;;;;;5058527;28;20429;-62
2023/08/20 01:19:17;;;;;;;22.90;17.15;;;;;;;;;;5053134;28;20752;-62
2023/08/20 01:21:48;;;;;;;25.90;19.10;;;;;;;;;;5056403;28;20484;-62
2023/08/20 01:24:23;;;;;;;23.83;18.60;;;;;;;;;;5048602;28;20423;-62
2023/08/20 01:26:57;;;;;;;29.27;18.90;;;;;;;;;;5052702;28;20834;-63
2023/08/20 01:29:26;;;;;;;27.02;18.80;;;;;;;;;;5059797;28;20831;-62
2023/08/20 01:31:54;;;;;;;27.45;18.67;;;;;;;;;;5056250;28;20512;-62
2023/08/20 01:34:21;;;;;;;31.85;21.98;;;;;;;;;;5052224;28;20760;-62
2023/08/20 01:36:48;;;;;;;34.22;23.77;;;;;;;;;;5056178;28;20409;-62
2023/08/20 01:39:15;;;;;;;33.30;23.17;;;;;;;;;;5060372;28;20411;-62
2023/08/20 01:41:42;;;;;;;31.75;23.08;;;;;;;;;;5056352;28;20412;-63
2023/08/20 01:44:09;;;;;;;33.25;23.85;;;;;;;;;;5059368;28;20467;-62
2023/08/20 01:46:37;;;;;;;31.75;22.75;;;;;;;;;;5057474;28;20894;-62
2023/08/20 01:49:04;;;;;;;34.88;24.92;;;;;;;;;;5056083;28;20437;-62
2023/08/20 01:51:31;;;;;;;33.28;23.10;;;;;;;;;;5057195;28;20411;-62
2023/08/20 01:53:58;;;;;;;31.90;23.85;;;;;;;;;;5055330;28;20915;-62
2023/08/20 01:56:25;;;;;;;32.85;23.90;;;;;;;;;;5058988;28;20405;-62
2023/08/20 01:58:52;;;;;;;35.40;23.73;;;;;;;;;;5058357;28;20421;-63
2023/08/20 02:01:20;;;;;;;32.58;22.70;;;;;;;;;;5059857;28;20463;-62
2023/08/20 02:03:48;;;;;;;31.63;22.85;;;;;;;;;;5059960;28;20496;-61
2023/08/20 02:06:15;;;;;;;32.80;22.55;;;;;;;;;;5063842;28;20431;-61
2023/08/20 02:08:42;;;;;;;31.00;22.38;;;;;;;;;;5060565;28;20470;-62
2023/08/20 02:11:09;;;;;;;34.65;22.85;;;;;;;;;;5068235;28;20408;-63
2023/08/20 02:13:36;;;;;;;33.13;24.38;;;;;;;;;;5061731;28;20407;-63
2023/08/20 02:16:04;;;;;;;33.40;23.58;;;;;;;;;;5064074;28;20889;-62
2023/08/20 02:18:31;;;;;;;39.92;25.13;;;;;;;;;;5060054;28;20515;-61
2023/08/20 02:20:59;;;;;;;34.80;24.38;;;;;;;;;;5058668;28;20468;-62
2023/08/20 02:23:26;;;;;;;40.20;25.40;;;;;;;;;;5059539;28;20947;-61
2023/08/20 02:25:53;;;;;;;38.72;26.25;;;;;;;;;;5063870;28;20427;-63
2023/08/20 02:28:20;;;;;;;34.72;24.83;;;;;;;;;;5056020;28;20462;-63
2023/08/20 02:30:48;;;;;;;37.25;26.25;;;;;;;;;;5060396;28;20417;-62
2023/08/20 02:33:15;;;;;;;40.25;27.02;;;;;;;;;;5063896;28;20415;-62
2023/08/20 02:35:42;;;;;;;41.55;27.58;;;;;;;;;;5060172;28;20409;-62
2023/08/20 02:38:11;;;;;;;41.15;28.05;;;;;;;;;;5058363;28;20481;-63
2023/08/20 02:40:41;;;;;;;42.20;27.65;;;;;;;;;;5062998;28;20506;-62
2023/08/20 02:43:08;;;;;;;38.03;27.10;;;;;;;;;;5054310;28;20503;-62
2023/08/20 02:45:40;;;;;;;37.50;25.83;;;;;;;;;;5063624;28;20425;-62
2023/08/20 02:48:08;;;;;;;36.75;25.95;;;;;;;;;;5055323;28;21127;-62
2023/08/20 02:50:35;;;;;;;39.35;26.10;;;;;;;;;;5060582;28;20405;-62
2023/08/20 02:53:02;;;;;;;33.30;23.50;;;;;;;;;;5055899;28;20406;-63
2023/08/20 02:55:31;;;;;;;34.38;24.83;;;;;;;;;;5059613;28;20942;-62
2023/08/20 02:57:58;;;;;;;34.72;25.25;;;;;;;;;;5058967;28;20409;-61
2023/08/20 03:00:25;;;;;;;33.97;25.00;;;;;;;;;;5060998;28;20957;-62
2023/08/20 03:02:52;;;;;;;41.45;27.25;;;;;;;;;;5056866;28;20476;-62
2023/08/20 03:05:19;;;;;;;42.67;27.48;;;;;;;;;;5060509;28;20423;-62
2023/08/20 03:07:46;;;;;;;37.57;25.83;;;;;;;;;;5060812;28;20412;-62
2023/08/20 03:10:13;;;;;;;37.85;25.35;;;;;;;;;;5061213;28;20948;-62
2023/08/20 03:12:41;;;;;;;35.00;24.70;;;;;;;;;;5060888;28;20413;-61
2023/08/20 03:15:09;;;;;;;33.53;23.23;;;;;;;;;;5061314;28;20413;-62
2023/08/20 03:17:36;;;;;;;32.13;21.90;;;;;;;;;;5060909;28;20424;-62
2023/08/20 03:20:05;;;;;;;37.13;22.95;;;;;;;;;;5058330;28;20479;-62
2023/08/20 03:22:32;;;;;;;46.70;27.63;;;;;;;;;;5059501;28;20502;-61
2023/08/20 03:25:01;;;;;;;48.77;28.77;;;;;;;;;;5058657;28;21300;-63
2023/08/20 03:27:28;;;;;;;44.50;28.10;;;;;;;;;;5057307;28;21059;-62
2023/08/20 03:29:57;;;;;;;46.80;28.67;;;;;;;;;;5059109;28;20420;-62
2023/08/20 03:32:24;;;;;;;46.00;28.42;;;;;;;;;;5061982;28;20461;-63
2023/08/20 03:34:53;;;;;;;38.50;25.05;;;;;;;;;;5059189;28;20974;-62
2023/08/20 03:37:20;;;;;;;39.97;26.63;;;;;;;;;;5058262;28;20489;-62
2023/08/20 03:39:47;;;;;;;38.10;25.20;;;;;;;;;;5059390;28;20409;-61
2023/08/20 03:42:14;;;;;;;37.33;24.27;;;;;;;;;;5062847;28;20422;-63
2023/08/20 03:44:41;;;;;;;39.83;24.00;;;;;;;;;;5059516;28;20480;-61
2023/08/20 03:47:09;;;;;;;36.72;23.25;;;;;;;;;;5062634;28;20421;-62
2023/08/20 03:49:36;;;;;;;34.58;24.85;;;;;;;;;;5055781;28;20416;-62
2023/08/20 03:52:03;;;;;;;36.05;24.75;;;;;;;;;;5060184;28;20462;-62
2023/08/20 03:54:30;;;;;;;38.13;26.45;;;;;;;;;;5055118;28;20927;-62
2023/08/20 03:56:58;;;;;;;43.50;27.30;;;;;;;;;;5061293;28;20484;-62
2023/08/20 03:59:24;;;;;;;40.13;26.60;;;;;;;;;;5059146;28;20419;-62
2023/08/20 04:01:51;;;;;;;35.63;24.65;;;;;;;;;;5060476;28;20887;-63
2023/08/20 04:04:21;;;;;;;35.38;24.48;;;;;;;;;;5060344;28;20411;-62
2023/08/20 04:06:48;;;;;;;33.85;23.30;;;;;;;;;;5058427;28;20426;-62
2023/08/20 04:09:15;;;;;;;33.35;23.50;;;;;;;;;;5060316;28;20419;-62
2023/08/20 04:11:41;;;;;;;34.45;23.67;;;;;;;;;;5058123;28;20413;-62
2023/08/20 04:14:08;;;;;;;39.35;25.40;;;;;;;;;;5060720;28;20487;-62
2023/08/20 04:16:35;;;;;;;32.78;23.50;;;;;;;;;;5059251;28;20417;-62
2023/08/20 04:19:02;;;;;;;32.83;22.80;;;;;;;;;;5057408;28;20409;-62
2023/08/20 04:21:31;;;;;;;36.03;24.20;;;;;;;;;;5054412;28;20469;-61
2023/08/20 04:23:58;;;;;;;33.45;23.42;;;;;;;;;;5056616;28;21423;-62
2023/08/20 04:26:25;;;;;;;37.93;23.93;;;;;;;;;;5058260;28;20431;-61
2023/08/20 04:28:52;;;;;;;38.88;25.92;;;;;;;;;;5056783;28;20473;-61
2023/08/20 04:31:19;;;;;;;40.60;25.42;;;;;;;;;;5060748;28;20430;-62
2023/08/20 04:33:47;;;;;;;45.33;29.05;;;;;;;;;;5054464;28;20470;-61
2023/08/20 04:36:14;;;;;;;45.93;29.50;;;;;;;;;;5057278;28;20457;-61
2023/08/20 04:38:42;;;;;;;60.05;32.65;;;;;;;;;;5055900;28;20957;-61
2023/08/20 04:41:09;;;;;;;51.00;30.98;;;;;;;;;;5057538;28;20417;-61
2023/08/20 04:43:36;;;;;;;61.55;34.13;;;;;;;;;;5056505;28;20468;-60
2023/08/20 04:46:03;;;;;;;51.47;30.40;;;;;;;;;;5056859;28;20911;-61
2023/08/20 04:48:30;;;;;;;49.90;30.30;;;;;;;;;;5051692;28;20409;-61
2023/08/20 04:50:58;;;;;;;53.73;32.73;;;;;;;;;;5056037;28;20968;-61
2023/08/20 04:53:25;;;;;;;59.30;34.85;;;;;;;;;;5050029;28;20488;-60
2023/08/20 04:55:53;;;;;;;63.13;36.35;;;;;;;;;;5057053;28;20414;-60
2023/08/20 04:58:20;;;;;;;59.97;35.72;;;;;;;;;;5054848;28;20407;-62
2023/08/20 05:00:47;;;;;;;53.10;33.85;;;;;;;;;;5057071;28;20906;-61
2023/08/20 05:03:14;;;;;;;50.43;33.03;;;;;;;;;;5061160;28;20407;-61
2023/08/20 05:05:41;;;;;;;55.30;32.83;;;;;;;;;;5057401;28;20424;-62
2023/08/20 05:08:08;;;;;;;50.95;33.47;;;;;;;;;;5050840;28;20812;-60
2023/08/20 05:10:37;;;;;;;48.15;32.13;;;;;;;;;;5055390;28;20415;-63
2023/08/20 05:13:05;;;;;;;46.28;28.98;;;;;;;;;;5050421;28;20914;-62
2023/08/20 05:15:32;;;;;;;38.60;27.38;;;;;;;;;;5056900;28;20460;-62
2023/08/20 05:17:59;;;;;;;44.38;30.60;;;;;;;;;;5056866;28;20462;-64
2023/08/20 05:20:26;;;;;;;42.60;29.60;;;;;;;;;;5056201;28;20884;-63
2023/08/20 05:22:53;;;;;;;41.40;29.10;;;;;;;;;;5053062;28;20413;-63
2023/08/20 05:25:20;;;;;;;48.35;30.63;;;;;;;;;;5058889;28;20411;-62
2023/08/20 05:27:47;;;;;;;57.78;33.30;;;;;;;;;;5057757;28;20413;-62
2023/08/20 05:30:16;;;;;;;71.32;36.60;;;;;;;;;;5058189;28;20471;-61
2023/08/20 05:32:43;;;;;;;69.82;38.88;;;;;;;;;;5056524;28;21064;-62
2023/08/20 05:35:10;;;;;;;68.53;37.13;;;;;;;;;;5058093;28;20424;-61
2023/08/20 05:37:37;;;;;;;61.80;36.15;;;;;;;;;;5058598;28;20417;-61
2023/08/20 05:40:04;;;;;;;70.90;37.22;;;;;;;;;;5062379;28;20502;-62
2023/08/20 05:42:31;;;;;;;66.75;38.17;;;;;;;;;;5063031;28;20411;-62
2023/08/20 05:44:58;;;;;;;68.90;36.85;;;;;;;;;;5061509;28;20421;-62
2023/08/20 05:47:26;;;;;;;70.30;38.58;;;;;;;;;;5063050;28;20940;-62
2023/08/20 05:49:54;;;;;;;68.63;38.85;;;;;;;;;;5057209;28;20415;-62
2023/08/20 05:52:21;;;;;;;66.53;37.85;;;;;;;;;;5058269;28;20765;-62
2023/08/20 05:54:48;;;;;;;66.43;39.17;;;;;;;;;;5060527;28;20420;-61
2023/08/20 05:57:15;;;;;;;64.72;39.05;;;;;;;;;;5063779;28;20465;-62
2023/08/20 05:59:42;;;;;;;67.70;38.85;;;;;;;;;;5060560;28;20465;-62
2023/08/20 06:02:09;;;;;;;62.10;37.08;;;;;;;;;;5063928;28;20416;-63
2023/08/20 06:04:37;;;;;;;61.15;36.78;;;;;;;;;;5060452;28;20441;-61
2023/08/20 06:07:04;;;;;;;58.72;36.63;;;;;;;;;;5061673;28;20427;-62
2023/08/20 06:09:31;;;;;;;56.20;34.60;;;;;;;;;;5054182;28;20415;-62
2023/08/20 06:11:58;;;;;;;53.85;33.60;;;;;;;;;;5058467;28;20787;-62
2023/08/20 06:14:25;;;;;;;51.05;33.25;;;;;;;;;;5061331;28;20418;-62
2023/08/20 06:16:52;;;;;;;49.95;32.08;;;;;;;;;;5061710;28;20779;-61
2023/08/20 06:19:19;;;;;;;40.87;28.63;;;;;;;;;;5055162;28;20411;-61
2023/08/20 06:21:47;;;;;;;37.45;26.80;;;;;;;;;;5054515;28;20899;-61
2023/08/20 06:24:14;;;;;;;36.35;26.08;;;;;;;;;;5056162;28;20411;-62
2023/08/20 06:26:43;;;;;;;34.88;24.52;;;;;;;;;;5059089;28;20436;-62
2023/08/20 06:29:10;;;;;;;35.05;24.58;;;;;;;;;;5062642;28;20459;-61
2023/08/20 06:31:37;;;;;;;27.50;21.65;;;;;;;;;;5058515;28;20783;-62
2023/08/20 06:34:04;;;;;;;28.58;22.00;;;;;;;;;;5045306;28;20411;-63
2023/08/20 06:36:31;;;;;;;26.98;21.13;;;;;;;;;;5064127;28;20491;-62
2023/08/20 06:39:00;;;;;;;30.52;22.52;;;;;;;;;;5056961;28;20501;-62
2023/08/20 06:41:27;;;;;;;28.13;21.07;;;;;;;;;;5061258;28;20557;-62
2023/08/20 06:43:54;;;;;;;29.13;22.02;;;;;;;;;;5061753;28;20961;-62
2023/08/20 06:46:21;;;;;;;26.27;19.90;;;;;;;;;;5062102;28;20441;-61
2023/08/20 06:48:48;;;;;;;26.88;20.80;;;;;;;;;;5060170;28;20415;-62
2023/08/20 06:51:16;;;;;;;29.25;20.75;;;;;;;;;;5054550;28;20784;-61
2023/08/20 06:53:43;;;;;;;27.80;18.52;;;;;;;;;;5062660;28;20496;-61
2023/08/20 06:56:11;;;;;;;24.88;19.20;;;;;;;;;;5062829;28;20417;-62
2023/08/20 06:58:39;;;;;;;22.02;17.52;;;;;;;;;;5062191;28;20483;-62
2023/08/20 07:01:09;;;;;;;24.23;18.48;;;;;;;;;;5059803;28;20834;-62
2023/08/20 07:03:36;;;;;;;21.33;17.90;;;;;;;;;;5062249;28;20411;-63
2023/08/20 07:06:03;;;;;;;23.17;17.30;;;;;;;;;;5060273;28;20440;-62
2023/08/20 07:08:30;;;;;;;23.63;17.90;;;;;;;;;;5062097;28;20411;-61
2023/08/20 07:10:57;;;;;;;20.95;16.60;;;;;;;;;;5057321;28;20441;-62
2023/08/20 07:13:26;;;;;;;21.30;16.38;;;;;;;;;;5057972;28;20433;-61
2023/08/20 07:15:53;;;;;;;23.43;17.87;;;;;;;;;;5057472;28;20413;-63
2023/08/20 07:18:20;;;;;;;23.38;18.25;;;;;;;;;;5062151;28;20412;-63
2023/08/20 07:20:47;;;;;;;24.95;18.85;;;;;;;;;;5056587;28;20413;-61
2023/08/20 07:23:14;;;;;;;22.67;18.42;;;;;;;;;;5066029;28;20473;-61
2023/08/20 07:25:41;;;;;;;23.50;17.57;;;;;;;;;;5068214;28;20420;-61
2023/08/20 07:28:09;;;;;;;24.17;18.15;;;;;;;;;;5060170;28;20429;-60
2023/08/20 07:30:37;;;;;;;24.38;18.17;;;;;;;;;;5056854;28;20409;-61
2023/08/20 07:33:04;;;;;;;23.93;18.43;;;;;;;;;;5060096;28;20429;-61
2023/08/20 07:35:31;;;;;;;21.95;17.92;;;;;;;;;;5056357;28;20949;-61
2023/08/20 07:37:58;;;;;;;23.77;18.55;;;;;;;;;;5059403;28;20409;-62
2023/08/20 07:40:25;;;;;;;21.33;17.03;;;;;;;;;;5058705;28;20500;-63
2023/08/20 07:42:52;;;;;;;23.60;17.35;;;;;;;;;;5058535;28;20464;-62
2023/08/20 07:45:19;;;;;;;27.90;21.08;;;;;;;;;;5059023;28;20490;-59
2023/08/20 07:47:48;;;;;;;24.88;17.15;;;;;;;;;;5058435;28;20431;-61
2023/08/20 07:50:15;;;;;;;20.98;16.25;;;;;;;;;;5054822;28;20466;-61
2023/08/20 07:52:42;;;;;;;23.10;17.00;;;;;;;;;;5059089;28;20409;-61
2023/08/20 07:55:09;;;;;;;20.52;17.10;;;;;;;;;;5049900;28;20467;-62
2023/08/20 07:57:36;;;;;;;19.40;16.27;;;;;;;;;;5059998;28;20449;-62
2023/08/20 08:00:04;;;;;;;18.13;15.75;;;;;;;;;;5059979;28;20424;-63
2023/08/20 08:02:31;;;;;;;20.02;14.32;;;;;;;;;;5060505;28;20474;-62
2023/08/20 08:04:59;;;;;;;17.55;14.85;;;;;;;;;;5058444;28;20413;-64
2023/08/20 08:07:27;;;;;;;16.48;13.95;;;;;;;;;;5060506;28;20493;-59
2023/08/20 08:09:54;;;;;;;15.75;13.98;;;;;;;;;;5058387;28;20409;-60
2023/08/20 08:12:21;;;;;;;17.33;14.20;;;;;;;;;;5057018;28;20407;-60
2023/08/20 08:14:49;;;;;;;15.55;13.38;;;;;;;;;;5058364;28;20409;-59
2023/08/20 08:17:16;;;;;;;16.60;14.20;;;;;;;;;;5061161;28;20457;-60
2023/08/20 08:19:43;;;;;;;13.60;12.20;;;;;;;;;;5071839;28;20402;-60
2023/08/20 08:22:11;;;;;;;14.38;12.13;;;;;;;;;;5071841;28;20413;-61
2023/08/20 08:24:41;;;;;;;14.50;12.38;;;;;;;;;;5064167;28;20465;-60
2023/08/20 08:27:08;;;;;;;16.00;11.38;;;;;;;;;;5057386;28;21106;-59
2023/08/20 08:29:35;;;;;;;13.10;10.10;;;;;;;;;;5060815;28;20411;-60
2023/08/20 08:32:02;;;;;;;11.65;9.18;;;;;;;;;;5057824;28;20409;-61
2023/08/20 08:34:29;;;;;;;8.80;7.65;;;;;;;;;;5061042;28;20465;-62
2023/08/20 08:36:56;;;;;;;10.73;7.10;;;;;;;;;;5057731;28;20464;-62
2023/08/20 08:39:25;;;;;;;9.45;6.95;;;;;;;;;;5060371;28;20415;-62
2023/08/20 08:41:53;;;;;;;10.47;7.23;;;;;;;;;;5058067;28;20467;-62
2023/08/20 08:44:20;;;;;;;7.65;6.85;;;;;;;;;;5060981;28;20407;-62
2023/08/20 08:46:49;;;;;;;8.77;7.25;;;;;;;;;;5053037;28;20432;-64
2023/08/20 08:49:16;;;;;;;10.25;7.60;;;;;;;;;;5052029;28;20416;-61
2023/08/20 08:51:44;;;;;;;10.53;7.60;;;;;;;;;;5057567;28;20420;-61
2023/08/20 08:54:11;;;;;;;8.23;7.20;;;;;;;;;;5051021;28;20411;-59
2023/08/20 08:56:39;;;;;;;10.65;6.97;;;;;;;;;;5054092;28;20467;-60
2023/08/20 08:59:06;;;;;;;8.00;6.82;;;;;;;;;;5053428;28;20410;-61
2023/08/20 09:01:33;;;;;;;10.02;6.60;;;;;;;;;;5056240;28;20423;-61
2023/08/20 09:04:00;;;;;;;9.10;6.95;;;;;;;;;;5052182;28;20421;-60
2023/08/20 09:06:27;;;;;;;8.63;6.43;;;;;;;;;;5055369;28;20510;-60
2023/08/20 09:09:05;;;;;;;8.20;6.20;;;;;;;;;;5058668;28;20961;-61
2023/08/20 09:11:36;;;;;;;8.00;6.00;;;;;;;;;;5059068;28;20422;-60
2023/08/20 09:14:04;;;;;;;8.68;5.85;;;;;;;;;;5051871;28;20516;-60
2023/08/20 09:16:32;;;;;;;7.72;6.03;;;;;;;;;;5059107;28;20404;-61
2023/08/20 09:19:00;;;;;;;6.72;5.50;;;;;;;;;;5053463;28;20401;-61
2023/08/20 09:21:29;;;;;;;7.43;6.05;;;;;;;;;;5054601;28;20753;-60
2023/08/20 09:23:56;;;;;;;7.82;6.18;;;;;;;;;;5060223;28;20504;-60
2023/08/20 09:26:23;;;;;;;7.93;6.20;;;;;;;;;;5058368;28;20412;-61
2023/08/20 09:28:51;;;;;;;7.90;6.25;;;;;;;;;;5058610;28;20433;-60
2023/08/20 09:31:19;;;;;;;7.07;6.28;;;;;;;;;;5059079;28;20878;-60
2023/08/20 09:33:52;;;;;;;7.30;6.55;;;;;;;;;;5058374;28;20421;-60
2023/08/20 09:36:19;;;;;;;6.63;5.82;;;;;;;;;;5058953;28;20421;-60
2023/08/20 09:38:46;;;;;;;6.65;5.63;;;;;;;;;;5058092;28;20942;-61
2023/08/20 09:41:13;;;;;;;6.95;5.70;;;;;;;;;;5058842;28;20413;-61
2023/08/20 09:43:40;;;;;;;6.28;5.68;;;;;;;;;;5058715;28;20887;-60
2023/08/20 09:46:08;;;;;;;7.15;6.40;;;;;;;;;;5058377;28;20459;-61
2023/08/20 09:48:36;;;;;;;7.40;6.07;;;;;;;;;;5058135;28;20420;-60
2023/08/20 09:51:06;;;;;;;7.97;6.45;;;;;;;;;;5051252;28;20461;-60
2023/08/20 09:53:35;;;;;;;8.68;6.38;;;;;;;;;;5059524;28;20411;-61
2023/08/20 09:56:05;;;;;;;7.30;6.10;;;;;;;;;;5057712;28;20884;-61
2023/08/20 09:58:33;;;;;;;6.30;5.30;;;;;;;;;;5059379;28;20403;-61
2023/08/20 10:01:00;;;;;;;6.75;6.07;;;;;;;;;;5058557;28;20417;-60
2023/08/20 10:03:27;;;;;;;6.38;5.03;;;;;;;;;;5059878;28;20457;-61
2023/08/20 10:05:56;;;;;;;6.50;5.80;;;;;;;;;;5057472;28;20895;-60
2023/08/20 10:08:23;;;;;;;7.05;6.32;;;;;;;;;;5054050;28;20429;-60
2023/08/20 10:10:50;;;;;;;7.35;6.30;;;;;;;;;;5058838;28;20436;-61
2023/08/20 10:13:17;;;;;;;7.13;6.43;;;;;;;;;;5057912;28;20880;-61
2023/08/20 10:15:45;;;;;;;6.80;5.60;;;;;;;;;;5059544;28;20419;-61
2023/08/20 10:18:13;;;;;;;6.47;5.78;;;;;;;;;;5035384;28;20785;-62
2023/08/20 10:20:41;;;;;;;6.75;5.63;;;;;;;;;;5049628;28;20424;-62
2023/08/20 10:23:09;;;;;;;6.20;5.60;;;;;;;;;;5047352;28;20498;-64
2023/08/20 10:25:42;;;;;;;6.90;6.15;;;;;;;;;;5051300;28;20891;-64
2023/08/20 10:28:13;;;;;;;9.32;7.95;;;;;;;;;;5054725;28;21111;-62
2023/08/20 10:30:40;;;;;;;8.68;7.78;;;;;;;;;;5052936;28;20856;-64
2023/08/20 10:33:10;;;;;;;9.90;7.47;;;;;;;;;;5056652;28;20471;-65
2023/08/20 10:35:48;;;;;;;8.70;7.78;;;;;;;;;;5054652;28;20417;-64
2023/08/20 10:38:17;;;;;;;9.25;8.23;;;;;;;;;;5051554;28;20444;-63
2023/08/20 10:40:53;;;;;;;9.90;7.78;;;;;;;;;;5059208;28;20407;-63
2023/08/20 10:43:32;;;;;;;10.18;7.20;;;;;;;;;;5056794;28;20473;-64
2023/08/20 10:46:10;;;;;;;9.63;7.28;;;;;;;;;;5048531;28;20911;-62
2023/08/20 10:48:38;;;;;;;7.70;6.88;;;;;;;;;;5054798;28;20427;-62
2023/08/20 10:51:12;;;;;;;9.27;7.40;;;;;;;;;;5054790;28;20436;-62
2023/08/20 10:53:41;;;;;;;8.95;6.90;;;;;;;;;;5055882;28;20408;-61
2023/08/20 10:56:16;;;;;;;7.88;7.05;;;;;;;;;;5057768;28;20449;-61
2023/08/20 10:58:44;;;;;;;8.95;8.05;;;;;;;;;;5050906;28;20959;-61
2023/08/20 11:01:15;;;;;;;9.32;8.10;;;;;;;;;;5057669;28;20415;-62
2023/08/20 11:03:42;;;;;;;8.75;7.47;;;;;;;;;;5051768;28;20496;-67
2023/08/20 11:06:09;;;;;;;8.05;7.25;;;;;;;;;;5055874;28;20493;-63
2023/08/20 11:08:37;;;;;;;8.23;7.35;;;;;;;;;;5051707;28;20433;-62
2023/08/20 11:11:05;;;;;;;9.75;8.10;;;;;;;;;;5056137;28;20421;-63
2023/08/20 11:13:33;;;;;;;8.37;7.63;;;;;;;;;;5052171;28;20424;-62
2023/08/20 11:16:00;;;;;;;10.98;8.07;;;;;;;;;;5049538;28;20475;-62
2023/08/20 11:18:28;;;;;;;13.07;10.48;;;;;;;;;;5050646;28;20467;-63
2023/08/20 11:20:55;;;;;;;10.27;8.75;;;;;;;;;;5054087;28;20892;-62
2023/08/20 11:23:22;;;;;;;11.60;10.50;;;;;;;;;;5052947;28;20475;-62
2023/08/20 11:25:49;;;;;;;12.52;10.68;;;;;;;;;;5058776;28;20463;-62
2023/08/20 11:28:17;;;;;;;12.82;11.52;;;;;;;;;;5054936;28;20429;-60
2023/08/20 11:30:44;;;;;;;13.20;11.90;;;;;;;;;;5058003;28;20416;-61
2023/08/20 11:33:12;;;;;;;13.20;10.90;;;;;;;;;;5057567;28;20413;-62
2023/08/20 11:35:39;;;;;;;14.10;11.82;;;;;;;;;;5054674;28;20492;-61
2023/08/20 11:38:07;;;;;;;12.43;11.13;;;;;;;;;;5051464;28;20771;-61
2023/08/20 11:40:34;;;;;;;17.43;13.77;;;;;;;;;;5057873;28;20973;-61
2023/08/20 11:43:02;;;;;;;16.00;13.17;;;;;;;;;;5056976;28;20469;-61
2023/08/20 11:45:30;;;;;;;17.65;15.82;;;;;;;;;;5055062;28;20817;-61
2023/08/20 11:47:58;;;;;;;19.35;17.35;;;;;;;;;;5057370;28;20921;-61
2023/08/20 11:50:25;;;;;;;20.65;17.90;;;;;;;;;;5051499;28;20517;-61
2023/08/20 11:52:54;;;;;;;24.15;18.33;;;;;;;;;;5066451;28;20474;-61
2023/08/20 11:55:24;;;;;;;19.83;17.33;;;;;;;;;;5065130;28;20405;-65
2023/08/20 11:57:51;;;;;;;22.80;18.27;;;;;;;;;;5061560;28;20864;-62
2023/08/20 12:00:26;;;;;;;20.55;18.45;;;;;;;;;;5050862;28;20407;-63
2023/08/20 12:02:55;;;;;;;20.30;17.60;;;;;;;;;;5056172;28;20432;-60
2023/08/20 12:05:24;;;;;;;21.40;19.10;;;;;;;;;;5060077;28;20441;-60
2023/08/20 12:07:58;;;;;;;21.70;19.60;;;;;;;;;;5058139;28;20433;-60
2023/08/20 12:10:25;;;;;;;18.73;16.70;;;;;;;;;;5056680;28;20979;-61
2023/08/20 12:12:53;;;;;;;20.40;18.30;;;;;;;;;;5059487;28;20745;-60
2023/08/20 12:15:20;;;;;;;22.38;20.17;;;;;;;;;;5060234;28;20410;-61
2023/08/20 12:17:57;;;;;;;20.83;18.73;;;;;;;;;;5056245;28;20409;-62
2023/08/20 12:20:24;;;;;;;21.85;19.60;;;;;;;;;;5052760;28;20411;-60
2023/08/20 12:22:51;;;;;;;20.35;18.25;;;;;;;;;;5058421;28;20414;-61
2023/08/20 12:25:19;;;;;;;19.23;17.35;;;;;;;;;;5060135;28;20891;-60
2023/08/20 12:27:46;;;;;;;22.90;20.55;;;;;;;;;;5058833;28;20495;-60
2023/08/20 12:30:13;;;;;;;19.10;17.35;;;;;;;;;;5059197;28;20748;-60
2023/08/20 12:32:40;;;;;;;18.83;17.02;;;;;;;;;;5059668;28;20887;-62
2023/08/20 12:35:09;;;;;;;18.23;16.45;;;;;;;;;;5059002;28;20414;-62
2023/08/20 12:37:36;;;;;;;19.27;17.20;;;;;;;;;;5060260;28;20403;-61
2023/08/20 12:40:07;;;;;;;18.05;15.27;;;;;;;;;;5060319;28;20413;-61
2023/08/20 12:42:34;;;;;;;17.45;15.20;;;;;;;;;;5056394;28;20413;-59
2023/08/20 12:45:02;;;;;;;14.38;12.88;;;;;;;;;;5053276;28;20486;-61
2023/08/20 12:47:29;;;;;;;16.38;13.93;;;;;;;;;;5050053;28;20437;-61
2023/08/20 12:49:56;;;;;;;15.88;14.18;;;;;;;;;;5055904;28;20434;-60
2023/08/20 12:52:25;;;;;;;14.68;12.85;;;;;;;;;;5051408;28;20477;-60
2023/08/20 12:54:52;;;;;;;14.00;12.60;;;;;;;;;;5056496;28;20429;-60
2023/08/20 12:57:19;;;;;;;16.35;13.73;;;;;;;;;;5049902;28;20418;-62
2023/08/20 12:59:46;;;;;;;15.90;14.15;;;;;;;;;;5046835;28;20405;-60
2023/08/20 13:02:13;;;;;;;15.38;13.88;;;;;;;;;;5042951;28;20824;-61
2023/08/20 13:04:40;;;;;;;15.20;13.80;;;;;;;;;;5043944;28;20495;-61
2023/08/20 13:07:07;;;;;;;15.45;13.85;;;;;;;;;;5052946;28;20907;-61
2023/08/20 13:09:36;;;;;;;15.30;13.70;;;;;;;;;;5050912;28;20436;-61
2023/08/20 13:12:05;;;;;;;16.83;14.00;;;;;;;;;;5051431;28;20473;-61
2023/08/20 13:14:32;;;;;;;15.23;13.83;;;;;;;;;;5059278;28;20498;-61
2023/08/20 13:17:00;;;;;;;14.32;12.93;;;;;;;;;;5050854;28;20895;-61
2023/08/20 13:19:27;;;;;;;15.02;13.43;;;;;;;;;;5043599;28;20444;-61
2023/08/20 13:21:54;;;;;;;15.20;13.20;;;;;;;;;;5048108;28;20409;-67
2023/08/20 13:24:21;;;;;;;13.85;12.40;;;;;;;;;;5052506;28;21108;-61
2023/08/20 13:26:50;;;;;;;13.68;12.23;;;;;;;;;;5055395;28;20413;-61
2023/08/20 13:29:17;;;;;;;14.15;12.50;;;;;;;;;;5050671;28;20424;-61
2023/08/20 13:31:44;;;;;;;13.55;12.15;;;;;;;;;;5052451;28;20834;-61
2023/08/20 13:34:12;;;;;;;12.73;11.52;;;;;;;;;;5045201;28;20454;-62
2023/08/20 13:36:39;;;;;;;13.32;12.02;;;;;;;;;;5050390;28;20413;-58
2023/08/20 13:39:06;;;;;;;14.95;11.68;;;;;;;;;;5052196;28;20832;-59
2023/08/20 13:41:33;;;;;;;12.30;11.10;;;;;;;;;;5055510;28;20440;-59
2023/08/20 13:44:01;;;;;;;12.80;11.50;;;;;;;;;;5048921;28;20413;-62
2023/08/20 13:46:29;;;;;;;13.40;11.43;;;;;;;;;;5045654;28;20419;-60
2023/08/20 13:48:56;;;;;;;14.00;12.60;;;;;;;;;;5042736;28;20457;-61
2023/08/20 13:51:23;;;;;;;13.27;11.87;;;;;;;;;;5050970;28;20411;-60
2023/08/20 13:53:50;;;;;;;13.30;11.23;;;;;;;;;;5055645;28;20464;-60
2023/08/20 13:56:17;;;;;;;11.20;10.00;;;;;;;;;;5045598;28;20797;-61
2023/08/20 13:58:44;;;;;;;10.80;9.80;;;;;;;;;;5055270;28;20465;-61
2023/08/20 14:01:13;;;;;;;12.00;10.77;;;;;;;;;;5050223;28;20395;-58
2023/08/20 14:03:40;;;;;;;11.07;9.98;;;;;;;;;;5059146;28;20444;-61
2023/08/20 14:06:07;;;;;;;11.60;10.15;;;;;;;;;;5052334;28;20502;-61
2023/08/20 14:08:34;;;;;;;11.73;10.63;;;;;;;;;;5059067;28;20447;-59
2023/08/20 14:11:01;;;;;;;11.80;10.60;;;;;;;;;;5054429;28;20461;-60
2023/08/20 14:13:28;;;;;;;11.27;10.02;;;;;;;;;;5060205;28;20413;-59
2023/08/20 14:15:55;;;;;;;11.20;10.10;;;;;;;;;;5054983;28;20887;-62
2023/08/20 14:18:23;;;;;;;10.23;9.15;;;;;;;;;;5057356;28;20421;-60
2023/08/20 14:20:50;;;;;;;11.05;9.35;;;;;;;;;;5057267;28;20764;-60
2023/08/20 14:23:17;;;;;;;10.73;9.63;;;;;;;;;;5061185;28;20417;-60